sensor_id;sensor_type;location;lat;lon;timestamp;temperature;humidity
38464;DHT22;24243;51.956;5.902;2023-04-15T00:00:06;19.10;42.30
38464;DHT22;24243;51.956;5.902;2023-04-15T00:02:32;19.10;42.40
38464;DHT22;24243;51.956;5.902;2023-04-15T00:04:57;19.10;42.40
38464;DHT22;24243;51.956;5.902;2023-04-15T00:07:23;19.10;42.40
38464;DHT22;24243;51.956;5.902;2023-04-15T00:09:49;19.10;42.50
38464;DHT22;24243;51.956;5.902;2023-04-15T00:12:18;19.10;42.50
38464;DHT22;24243;51.956;5.902;2023-04-15T00:14:44;19.10;42.50
38464;DHT22;24243;51.956;5.902;2023-04-15T00:17:09;19.10;42.60
38464;DHT22;24243;51.956;5.902;2023-04-15T00:19:35;19.10;42.50
38464;DHT22;24243;51.956;5.902;2023-04-15T00:22:01;19.10;42.60
38464;DHT22;24243;51.956;5.902;2023-04-15T00:24:26;19.10;42.60
38464;DHT22;24243;51.956;5.902;2023-04-15T00:26:52;19.10;42.60
38464;DHT22;24243;51.956;5.902;2023-04-15T00:29:18;19.10;42.60
38464;DHT22;24243;51.956;5.902;2023-04-15T00:31:44;19.10;42.70
38464;DHT22;24243;51.956;5.902;2023-04-15T00:34:09;19.10;42.70
38464;DHT22;24243;51.956;5.902;2023-04-15T00:36:35;19.00;42.70
38464;DHT22;24243;51.956;5.902;2023-04-15T00:39:01;19.10;42.70
38464;DHT22;24243;51.956;5.902;2023-04-15T00:41:27;19.00;42.70
38464;DHT22;24243;51.956;5.902;2023-04-15T00:43:53;19.00;42.70
38464;DHT22;24243;51.956;5.902;2023-04-15T00:46:20;19.00;42.80
38464;DHT22;24243;51.956;5.902;2023-04-15T00:48:46;19.00;42.80
38464;DHT22;24243;51.956;5.902;2023-04-15T00:51:12;19.00;42.80
38464;DHT22;24243;51.956;5.902;2023-04-15T00:53:38;19.00;42.90
38464;DHT22;24243;51.956;5.902;2023-04-15T00:56:05;19.00;42.90
38464;DHT22;24243;51.956;5.902;2023-04-15T00:58:31;19.00;42.90
38464;DHT22;24243;51.956;5.902;2023-04-15T01:00:57;19.00;42.90
38464;DHT22;24243;51.956;5.902;2023-04-15T01:03:24;18.90;42.90
38464;DHT22;24243;51.956;5.902;2023-04-15T01:05:50;18.90;42.90
38464;DHT22;24243;51.956;5.902;2023-04-15T01:08:28;19.00;43.00
38464;DHT22;24243;51.956;5.902;2023-04-15T01:10:56;19.00;43.00
38464;DHT22;24243;51.956;5.902;2023-04-15T01:13:23;18.90;43.00
38464;DHT22;24243;51.956;5.902;2023-04-15T01:15:50;18.90;43.00
38464;DHT22;24243;51.956;5.902;2023-04-15T01:18:17;18.90;43.00
38464;DHT22;24243;51.956;5.902;2023-04-15T01:20:43;18.90;43.00
38464;DHT22;24243;51.956;5.902;2023-04-15T01:23:09;18.90;43.00
38464;DHT22;24243;51.956;5.902;2023-04-15T01:25:35;18.90;43.10
38464;DHT22;24243;51.956;5.902;2023-04-15T01:28:02;18.90;43.10
38464;DHT22;24243;51.956;5.902;2023-04-15T01:30:28;18.90;43.10
38464;DHT22;24243;51.956;5.902;2023-04-15T01:32:54;18.90;43.20
38464;DHT22;24243;51.956;5.902;2023-04-15T01:35:20;18.90;43.10
38464;DHT22;24243;51.956;5.902;2023-04-15T01:37:47;18.90;43.20
38464;DHT22;24243;51.956;5.902;2023-04-15T01:40:12;18.90;43.20
38464;DHT22;24243;51.956;5.902;2023-04-15T01:42:38;18.90;43.20
38464;DHT22;24243;51.956;5.902;2023-04-15T01:45:04;18.90;43.30
38464;DHT22;24243;51.956;5.902;2023-04-15T01:47:31;18.90;43.30
38464;DHT22;24243;51.956;5.902;2023-04-15T01:49:58;18.80;43.20
38464;DHT22;24243;51.956;5.902;2023-04-15T01:52:23;18.80;43.30
38464;DHT22;24243;51.956;5.902;2023-04-15T01:54:50;18.90;43.30
38464;DHT22;24243;51.956;5.902;2023-04-15T01:57:16;18.80;43.30
38464;DHT22;24243;51.956;5.902;2023-04-15T01:59:42;18.80;43.30
38464;DHT22;24243;51.956;5.902;2023-04-15T02:02:07;18.80;43.30
38464;DHT22;24243;51.956;5.902;2023-04-15T02:04:33;18.80;43.40
38464;DHT22;24243;51.956;5.902;2023-04-15T02:06:59;18.80;43.40
38464;DHT22;24243;51.956;5.902;2023-04-15T02:09:25;18.80;43.40
38464;DHT22;24243;51.956;5.902;2023-04-15T02:11:51;18.80;43.50
38464;DHT22;24243;51.956;5.902;2023-04-15T02:14:18;18.80;43.50
38464;DHT22;24243;51.956;5.902;2023-04-15T02:16:43;18.80;43.50
38464;DHT22;24243;51.956;5.902;2023-04-15T02:19:09;18.80;43.50
38464;DHT22;24243;51.956;5.902;2023-04-15T02:21:35;18.80;43.50
38464;DHT22;24243;51.956;5.902;2023-04-15T02:24:01;18.80;43.50
38464;DHT22;24243;51.956;5.902;2023-04-15T02:26:27;18.80;43.50
38464;DHT22;24243;51.956;5.902;2023-04-15T02:28:56;18.80;43.60
38464;DHT22;24243;51.956;5.902;2023-04-15T02:31:22;18.80;43.60
38464;DHT22;24243;51.956;5.902;2023-04-15T02:33:47;18.80;43.60
38464;DHT22;24243;51.956;5.902;2023-04-15T02:36:13;18.80;43.60
38464;DHT22;24243;51.956;5.902;2023-04-15T02:38:39;18.70;43.60
38464;DHT22;24243;51.956;5.902;2023-04-15T02:41:07;18.70;43.60
38464;DHT22;24243;51.956;5.902;2023-04-15T02:43:33;18.70;43.70
38464;DHT22;24243;51.956;5.902;2023-04-15T02:45:58;18.70;43.70
38464;DHT22;24243;51.956;5.902;2023-04-15T02:48:24;18.70;43.70
38464;DHT22;24243;51.956;5.902;2023-04-15T02:50:50;18.70;43.70
38464;DHT22;24243;51.956;5.902;2023-04-15T02:53:16;18.70;43.70
38464;DHT22;24243;51.956;5.902;2023-04-15T02:55:42;18.70;43.70
38464;DHT22;24243;51.956;5.902;2023-04-15T02:58:07;18.70;43.70
38464;DHT22;24243;51.956;5.902;2023-04-15T03:00:33;18.70;43.80
38464;DHT22;24243;51.956;5.902;2023-04-15T03:03:03;18.70;44.40
38464;DHT22;24243;51.956;5.902;2023-04-15T03:05:29;18.70;43.80
38464;DHT22;24243;51.956;5.902;2023-04-15T03:07:55;18.70;43.80
38464;DHT22;24243;51.956;5.902;2023-04-15T03:10:21;18.70;43.80
38464;DHT22;24243;51.956;5.902;2023-04-15T03:12:47;18.70;43.80
38464;DHT22;24243;51.956;5.902;2023-04-15T03:15:13;18.70;43.80
38464;DHT22;24243;51.956;5.902;2023-04-15T03:17:39;18.70;43.80
38464;DHT22;24243;51.956;5.902;2023-04-15T03:20:05;18.70;43.90
38464;DHT22;24243;51.956;5.902;2023-04-15T03:22:32;18.70;43.90
38464;DHT22;24243;51.956;5.902;2023-04-15T03:24:57;18.70;43.90
38464;DHT22;24243;51.956;5.902;2023-04-15T03:27:24;18.70;43.90
38464;DHT22;24243;51.956;5.902;2023-04-15T03:29:50;18.70;44.00
38464;DHT22;24243;51.956;5.902;2023-04-15T03:32:16;18.70;44.00
38464;DHT22;24243;51.956;5.902;2023-04-15T03:34:42;18.70;44.00
38464;DHT22;24243;51.956;5.902;2023-04-15T03:37:08;18.70;44.00
38464;DHT22;24243;51.956;5.902;2023-04-15T03:39:34;18.70;44.00
38464;DHT22;24243;51.956;5.902;2023-04-15T03:42:00;18.60;44.00
38464;DHT22;24243;51.956;5.902;2023-04-15T03:44:26;18.60;44.00
38464;DHT22;24243;51.956;5.902;2023-04-15T03:46:52;18.60;44.00
38464;DHT22;24243;51.956;5.902;2023-04-15T03:49:18;18.60;44.00
38464;DHT22;24243;51.956;5.902;2023-04-15T03:51:45;18.60;44.00
38464;DHT22;24243;51.956;5.902;2023-04-15T03:54:11;18.60;44.10
38464;DHT22;24243;51.956;5.902;2023-04-15T03:56:39;18.60;44.70
38464;DHT22;24243;51.956;5.902;2023-04-15T03:59:05;18.60;44.10
38464;DHT22;24243;51.956;5.902;2023-04-15T04:01:31;18.60;44.70
38464;DHT22;24243;51.956;5.902;2023-04-15T04:03:57;18.60;44.10
38464;DHT22;24243;51.956;5.902;2023-04-15T04:06:22;18.60;44.10
38464;DHT22;24243;51.956;5.902;2023-04-15T04:08:48;18.60;44.10
38464;DHT22;24243;51.956;5.902;2023-04-15T04:11:14;18.60;44.10
38464;DHT22;24243;51.956;5.902;2023-04-15T04:13:40;18.60;44.10
38464;DHT22;24243;51.956;5.902;2023-04-15T04:16:06;18.60;44.20
38464;DHT22;24243;51.956;5.902;2023-04-15T04:18:32;18.60;44.20
38464;DHT22;24243;51.956;5.902;2023-04-15T04:20:58;18.60;44.20
38464;DHT22;24243;51.956;5.902;2023-04-15T04:23:24;18.60;44.20
38464;DHT22;24243;51.956;5.902;2023-04-15T04:25:50;18.60;44.20
38464;DHT22;24243;51.956;5.902;2023-04-15T04:28:17;18.50;44.20
38464;DHT22;24243;51.956;5.902;2023-04-15T04:30:43;18.60;44.30
38464;DHT22;24243;51.956;5.902;2023-04-15T04:33:08;18.50;44.20
38464;DHT22;24243;51.956;5.902;2023-04-15T04:35:34;18.50;44.30
38464;DHT22;24243;51.956;5.902;2023-04-15T04:38:02;18.50;44.30
38464;DHT22;24243;51.956;5.902;2023-04-15T04:40:28;18.50;44.30
38464;DHT22;24243;51.956;5.902;2023-04-15T04:42:54;18.50;44.30
38464;DHT22;24243;51.956;5.902;2023-04-15T04:45:20;18.50;45.00
38464;DHT22;24243;51.956;5.902;2023-04-15T04:47:45;18.50;44.40
38464;DHT22;24243;51.956;5.902;2023-04-15T04:50:12;18.50;44.40
38464;DHT22;24243;51.956;5.902;2023-04-15T04:52:38;18.50;44.50
38464;DHT22;24243;51.956;5.902;2023-04-15T04:55:04;18.50;44.50
38464;DHT22;24243;51.956;5.902;2023-04-15T04:57:31;18.50;44.50
38464;DHT22;24243;51.956;5.902;2023-04-15T04:59:56;18.50;44.50
38464;DHT22;24243;51.956;5.902;2023-04-15T05:02:22;18.50;44.50
38464;DHT22;24243;51.956;5.902;2023-04-15T05:04:48;18.50;44.50
38464;DHT22;24243;51.956;5.902;2023-04-15T05:07:14;18.50;44.50
38464;DHT22;24243;51.956;5.902;2023-04-15T05:09:40;18.50;44.60
38464;DHT22;24243;51.956;5.902;2023-04-15T05:12:07;18.50;44.60
38464;DHT22;24243;51.956;5.902;2023-04-15T05:14:33;18.50;44.60
38464;DHT22;24243;51.956;5.902;2023-04-15T05:16:59;18.50;44.60
38464;DHT22;24243;51.956;5.902;2023-04-15T05:19:25;18.50;44.60
38464;DHT22;24243;51.956;5.902;2023-04-15T05:21:51;18.50;44.60
38464;DHT22;24243;51.956;5.902;2023-04-15T05:24:16;18.50;44.60
38464;DHT22;24243;51.956;5.902;2023-04-15T05:26:42;18.50;44.60
38464;DHT22;24243;51.956;5.902;2023-04-15T05:29:08;18.50;44.60
38464;DHT22;24243;51.956;5.902;2023-04-15T05:31:34;18.50;44.60
38464;DHT22;24243;51.956;5.902;2023-04-15T05:34:00;18.50;44.60
38464;DHT22;24243;51.956;5.902;2023-04-15T05:36:26;18.50;44.60
38464;DHT22;24243;51.956;5.902;2023-04-15T05:38:53;18.50;44.60
38464;DHT22;24243;51.956;5.902;2023-04-15T05:41:18;18.50;44.50
38464;DHT22;24243;51.956;5.902;2023-04-15T05:43:44;18.50;44.50
38464;DHT22;24243;51.956;5.902;2023-04-15T05:46:10;18.60;44.60
38464;DHT22;24243;51.956;5.902;2023-04-15T05:48:35;18.60;44.50
38464;DHT22;24243;51.956;5.902;2023-04-15T05:51:01;18.60;45.10
38464;DHT22;24243;51.956;5.902;2023-04-15T05:53:27;18.70;44.50
38464;DHT22;24243;51.956;5.902;2023-04-15T05:55:52;18.70;44.50
38464;DHT22;24243;51.956;5.902;2023-04-15T05:58:18;18.80;44.50
38464;DHT22;24243;51.956;5.902;2023-04-15T06:00:44;18.90;44.30
38464;DHT22;24243;51.956;5.902;2023-04-15T06:03:10;19.10;44.20
38464;DHT22;24243;51.956;5.902;2023-04-15T06:05:36;19.20;44.70
38464;DHT22;24243;51.956;5.902;2023-04-15T06:08:02;19.30;43.90
38464;DHT22;24243;51.956;5.902;2023-04-15T06:10:28;19.50;43.90
38464;DHT22;24243;51.956;5.902;2023-04-15T06:12:53;19.50;43.80
38464;DHT22;24243;51.956;5.902;2023-04-15T06:15:19;19.60;43.80
38464;DHT22;24243;51.956;5.902;2023-04-15T06:17:45;19.60;43.70
38464;DHT22;24243;51.956;5.902;2023-04-15T06:20:11;19.60;43.60
38464;DHT22;24243;51.956;5.902;2023-04-15T06:22:40;19.70;43.70
38464;DHT22;24243;51.956;5.902;2023-04-15T06:25:06;19.80;43.60
38464;DHT22;24243;51.956;5.902;2023-04-15T06:27:33;19.80;43.50
38464;DHT22;24243;51.956;5.902;2023-04-15T06:29:59;19.90;43.50
38464;DHT22;24243;51.956;5.902;2023-04-15T06:32:25;19.90;43.20
38464;DHT22;24243;51.956;5.902;2023-04-15T06:34:51;19.90;43.10
38464;DHT22;24243;51.956;5.902;2023-04-15T06:37:17;20.00;42.90
38464;DHT22;24243;51.956;5.902;2023-04-15T06:39:42;20.00;42.80
38464;DHT22;24243;51.956;5.902;2023-04-15T06:42:10;20.00;42.80
38464;DHT22;24243;51.956;5.902;2023-04-15T06:44:36;20.00;42.80
38464;DHT22;24243;51.956;5.902;2023-04-15T06:47:02;20.00;42.90
38464;DHT22;24243;51.956;5.902;2023-04-15T06:49:28;19.90;42.90
38464;DHT22;24243;51.956;5.902;2023-04-15T06:51:53;20.00;42.90
38464;DHT22;24243;51.956;5.902;2023-04-15T06:54:20;19.90;42.90
38464;DHT22;24243;51.956;5.902;2023-04-15T06:56:45;19.90;42.90
38464;DHT22;24243;51.956;5.902;2023-04-15T06:59:12;19.90;43.60
38464;DHT22;24243;51.956;5.902;2023-04-15T07:01:40;19.90;43.00
38464;DHT22;24243;51.956;5.902;2023-04-15T07:04:06;19.90;43.00
38464;DHT22;24243;51.956;5.902;2023-04-15T07:06:32;19.80;43.00
38464;DHT22;24243;51.956;5.902;2023-04-15T07:08:58;19.80;43.10
38464;DHT22;24243;51.956;5.902;2023-04-15T07:11:25;19.70;43.00
38464;DHT22;24243;51.956;5.902;2023-04-15T07:13:51;19.70;43.10
38464;DHT22;24243;51.956;5.902;2023-04-15T07:16:17;19.70;43.20
38464;DHT22;24243;51.956;5.902;2023-04-15T07:18:42;19.60;43.20
38464;DHT22;24243;51.956;5.902;2023-04-15T07:21:08;19.60;43.30
38464;DHT22;24243;51.956;5.902;2023-04-15T07:23:34;19.50;43.20
38464;DHT22;24243;51.956;5.902;2023-04-15T07:26:00;19.50;43.30
38464;DHT22;24243;51.956;5.902;2023-04-15T07:28:26;19.50;43.40
38464;DHT22;24243;51.956;5.902;2023-04-15T07:30:52;19.50;43.40
38464;DHT22;24243;51.956;5.902;2023-04-15T07:33:18;19.50;43.40
38464;DHT22;24243;51.956;5.902;2023-04-15T07:35:44;19.50;43.40
38464;DHT22;24243;51.956;5.902;2023-04-15T07:38:10;19.60;43.50
38464;DHT22;24243;51.956;5.902;2023-04-15T07:40:38;19.60;43.50
38464;DHT22;24243;51.956;5.902;2023-04-15T07:43:05;19.60;43.60
38464;DHT22;24243;51.956;5.902;2023-04-15T07:45:33;19.60;43.50
38464;DHT22;24243;51.956;5.902;2023-04-15T07:48:03;19.60;43.50
38464;DHT22;24243;51.956;5.902;2023-04-15T07:50:29;19.60;43.60
38464;DHT22;24243;51.956;5.902;2023-04-15T07:52:55;19.70;43.60
38464;DHT22;24243;51.956;5.902;2023-04-15T07:55:21;19.80;43.60
38464;DHT22;24243;51.956;5.902;2023-04-15T07:57:48;19.80;43.50
38464;DHT22;24243;51.956;5.902;2023-04-15T08:00:14;19.90;43.50
38464;DHT22;24243;51.956;5.902;2023-04-15T08:02:41;20.00;43.40
38464;DHT22;24243;51.956;5.902;2023-04-15T08:05:08;20.10;43.20
38464;DHT22;24243;51.956;5.902;2023-04-15T08:07:36;20.20;42.80
38464;DHT22;24243;51.956;5.902;2023-04-15T08:10:03;20.10;42.20
38464;DHT22;24243;51.956;5.902;2023-04-15T08:12:29;20.10;41.80
38464;DHT22;24243;51.956;5.902;2023-04-15T08:14:54;20.10;41.60
38464;DHT22;24243;51.956;5.902;2023-04-15T08:17:22;19.90;41.40
38464;DHT22;24243;51.956;5.902;2023-04-15T08:19:47;19.90;41.40
38464;DHT22;24243;51.956;5.902;2023-04-15T08:22:13;19.80;41.40
38464;DHT22;24243;51.956;5.902;2023-04-15T08:24:40;19.60;41.40
38464;DHT22;24243;51.956;5.902;2023-04-15T08:27:05;19.50;41.40
38464;DHT22;24243;51.956;5.902;2023-04-15T08:29:32;19.30;41.50
38464;DHT22;24243;51.956;5.902;2023-04-15T08:31:59;19.20;41.50
38464;DHT22;24243;51.956;5.902;2023-04-15T08:34:25;19.10;41.50
38464;DHT22;24243;51.956;5.902;2023-04-15T08:36:50;18.90;41.70
38464;DHT22;24243;51.956;5.902;2023-04-15T08:39:17;18.90;41.80
38464;DHT22;24243;51.956;5.902;2023-04-15T08:42:15;18.80;41.80
38464;DHT22;24243;51.956;5.902;2023-04-15T08:44:42;18.70;41.60
38464;DHT22;24243;51.956;5.902;2023-04-15T08:47:12;18.70;41.70
38464;DHT22;24243;51.956;5.902;2023-04-15T08:49:39;18.60;41.60
38464;DHT22;24243;51.956;5.902;2023-04-15T08:52:06;18.50;41.60
38464;DHT22;24243;51.956;5.902;2023-04-15T08:54:32;18.50;41.70
38464;DHT22;24243;51.956;5.902;2023-04-15T08:56:58;18.40;41.70
38464;DHT22;24243;51.956;5.902;2023-04-15T08:59:24;18.30;41.80
38464;DHT22;24243;51.956;5.902;2023-04-15T09:01:50;18.20;41.90
38464;DHT22;24243;51.956;5.902;2023-04-15T09:04:17;18.20;42.10
38464;DHT22;24243;51.956;5.902;2023-04-15T09:06:43;18.10;42.10
38464;DHT22;24243;51.956;5.902;2023-04-15T09:09:09;18.10;42.20
38464;DHT22;24243;51.956;5.902;2023-04-15T09:11:35;18.00;42.30
38464;DHT22;24243;51.956;5.902;2023-04-15T09:14:01;18.00;42.30
38464;DHT22;24243;51.956;5.902;2023-04-15T09:16:26;17.90;42.40
38464;DHT22;24243;51.956;5.902;2023-04-15T09:18:52;18.00;42.50
38464;DHT22;24243;51.956;5.902;2023-04-15T09:21:19;17.90;42.50
38464;DHT22;24243;51.956;5.902;2023-04-15T09:23:59;17.90;42.50
38464;DHT22;24243;51.956;5.902;2023-04-15T09:26:31;18.00;42.50
38464;DHT22;24243;51.956;5.902;2023-04-15T09:29:04;18.00;42.50
38464;DHT22;24243;51.956;5.902;2023-04-15T09:31:31;17.90;42.50
38464;DHT22;24243;51.956;5.902;2023-04-15T09:33:57;17.90;42.60
38464;DHT22;24243;51.956;5.902;2023-04-15T09:36:23;17.90;42.60
38464;DHT22;24243;51.956;5.902;2023-04-15T09:38:58;18.00;42.70
38464;DHT22;24243;51.956;5.902;2023-04-15T09:41:25;18.00;42.80
38464;DHT22;24243;51.956;5.902;2023-04-15T09:43:51;18.00;42.80
38464;DHT22;24243;51.956;5.902;2023-04-15T09:46:17;18.10;42.90
38464;DHT22;24243;51.956;5.902;2023-04-15T09:48:42;18.10;42.90
38464;DHT22;24243;51.956;5.902;2023-04-15T09:51:08;18.10;43.00
38464;DHT22;24243;51.956;5.902;2023-04-15T09:53:35;18.10;43.00
38464;DHT22;24243;51.956;5.902;2023-04-15T09:56:03;18.10;42.90
38464;DHT22;24243;51.956;5.902;2023-04-15T09:58:30;18.10;42.90
38464;DHT22;24243;51.956;5.902;2023-04-15T10:00:58;18.10;42.90
38464;DHT22;24243;51.956;5.902;2023-04-15T10:03:25;18.10;42.90
38464;DHT22;24243;51.956;5.902;2023-04-15T10:05:53;18.20;43.00
38464;DHT22;24243;51.956;5.902;2023-04-15T10:08:21;18.20;43.00
38464;DHT22;24243;51.956;5.902;2023-04-15T10:10:48;18.30;43.00
38464;DHT22;24243;51.956;5.902;2023-04-15T10:13:17;18.40;42.90
38464;DHT22;24243;51.956;5.902;2023-04-15T10:15:46;18.40;42.70
38464;DHT22;24243;51.956;5.902;2023-04-15T10:18:15;18.50;42.70
38464;DHT22;24243;51.956;5.902;2023-04-15T10:20:42;18.50;42.60
38464;DHT22;24243;51.956;5.902;2023-04-15T10:23:10;18.70;42.60
38464;DHT22;24243;51.956;5.902;2023-04-15T10:25:37;18.70;42.50
38464;DHT22;24243;51.956;5.902;2023-04-15T10:28:05;18.80;42.40
38464;DHT22;24243;51.956;5.902;2023-04-15T10:30:32;18.90;42.30
38464;DHT22;24243;51.956;5.902;2023-04-15T10:32:59;19.00;42.20
38464;DHT22;24243;51.956;5.902;2023-04-15T10:35:45;19.10;42.20
38464;DHT22;24243;51.956;5.902;2023-04-15T10:38:44;19.00;42.10
38464;DHT22;24243;51.956;5.902;2023-04-15T10:41:22;19.00;42.10
38464;DHT22;24243;51.956;5.902;2023-04-15T10:43:52;19.10;42.20
38464;DHT22;24243;51.956;5.902;2023-04-15T10:46:36;19.10;42.20
38464;DHT22;24243;51.956;5.902;2023-04-15T10:49:22;19.10;42.20
38464;DHT22;24243;51.956;5.902;2023-04-15T10:51:57;19.20;42.10
38464;DHT22;24243;51.956;5.902;2023-04-15T10:57:07;19.20;42.00
38464;DHT22;24243;51.956;5.902;2023-04-15T10:59:38;19.20;41.90
38464;DHT22;24243;51.956;5.902;2023-04-15T11:02:52;19.20;42.00
38464;DHT22;24243;51.956;5.902;2023-04-15T11:05:19;19.20;42.10
38464;DHT22;24243;51.956;5.902;2023-04-15T11:12:39;19.30;42.20
38464;DHT22;24243;51.956;5.902;2023-04-15T11:20:34;19.60;42.20
38464;DHT22;24243;51.956;5.902;2023-04-15T11:22:59;19.70;42.20
38464;DHT22;24243;51.956;5.902;2023-04-15T11:25:30;19.70;42.20
38464;DHT22;24243;51.956;5.902;2023-04-15T11:27:58;19.80;42.30
38464;DHT22;24243;51.956;5.902;2023-04-15T11:30:28;19.80;42.30
38464;DHT22;24243;51.956;5.902;2023-04-15T11:32:58;19.90;42.30
38464;DHT22;24243;51.956;5.902;2023-04-15T11:35:24;19.90;42.30
38464;DHT22;24243;51.956;5.902;2023-04-15T11:37:50;19.90;42.30
38464;DHT22;24243;51.956;5.902;2023-04-15T11:40:28;20.00;42.40
38464;DHT22;24243;51.956;5.902;2023-04-15T11:45:32;20.10;42.40
38464;DHT22;24243;51.956;5.902;2023-04-15T11:48:16;20.10;42.40
38464;DHT22;24243;51.956;5.902;2023-04-15T11:50:43;20.10;42.40
38464;DHT22;24243;51.956;5.902;2023-04-15T11:53:11;20.10;42.40
38464;DHT22;24243;51.956;5.902;2023-04-15T11:58:15;20.20;42.50
38464;DHT22;24243;51.956;5.902;2023-04-15T12:00:46;20.20;42.60
38464;DHT22;24243;51.956;5.902;2023-04-15T12:06:10;20.30;42.70
38464;DHT22;24243;51.956;5.902;2023-04-15T12:09:10;20.30;42.70
38464;DHT22;24243;51.956;5.902;2023-04-15T12:11:41;20.40;42.80
38464;DHT22;24243;51.956;5.902;2023-04-15T12:16:46;20.40;42.60
38464;DHT22;24243;51.956;5.902;2023-04-15T12:19:22;20.40;42.50
38464;DHT22;24243;51.956;5.902;2023-04-15T12:21:49;20.40;42.10
38464;DHT22;24243;51.956;5.902;2023-04-15T12:24:18;20.30;41.80
38464;DHT22;24243;51.956;5.902;2023-04-15T12:26:49;20.20;41.60
38464;DHT22;24243;51.956;5.902;2023-04-15T12:29:16;20.20;41.40
38464;DHT22;24243;51.956;5.902;2023-04-15T12:32:03;20.10;41.40
38464;DHT22;24243;51.956;5.902;2023-04-15T12:37:21;20.00;41.40
38464;DHT22;24243;51.956;5.902;2023-04-15T12:39:47;19.90;41.30
38464;DHT22;24243;51.956;5.902;2023-04-15T12:42:14;19.80;41.20
38464;DHT22;24243;51.956;5.902;2023-04-15T12:44:40;19.80;41.30
38464;DHT22;24243;51.956;5.902;2023-04-15T12:47:07;19.80;41.30
38464;DHT22;24243;51.956;5.902;2023-04-15T12:49:34;19.80;41.40
38464;DHT22;24243;51.956;5.902;2023-04-15T12:52:01;19.80;41.40
38464;DHT22;24243;51.956;5.902;2023-04-15T12:54:28;19.80;41.40
38464;DHT22;24243;51.956;5.902;2023-04-15T12:56:54;19.70;41.30
38464;DHT22;24243;51.956;5.902;2023-04-15T12:59:20;19.70;41.40
38464;DHT22;24243;51.956;5.902;2023-04-15T13:01:48;19.70;41.50
38464;DHT22;24243;51.956;5.902;2023-04-15T13:04:15;19.70;41.60
38464;DHT22;24243;51.956;5.902;2023-04-15T13:06:41;19.70;41.70
38464;DHT22;24243;51.956;5.902;2023-04-15T13:09:07;19.70;41.70
38464;DHT22;24243;51.956;5.902;2023-04-15T13:11:33;19.70;41.60
38464;DHT22;24243;51.956;5.902;2023-04-15T13:14:08;19.60;41.50
38464;DHT22;24243;51.956;5.902;2023-04-15T13:16:34;19.60;41.40
38464;DHT22;24243;51.956;5.902;2023-04-15T13:19:00;19.60;41.50
38464;DHT22;24243;51.956;5.902;2023-04-15T13:21:27;19.60;41.50
38464;DHT22;24243;51.956;5.902;2023-04-15T13:23:53;19.60;41.50
38464;DHT22;24243;51.956;5.902;2023-04-15T13:26:19;19.60;41.50
38464;DHT22;24243;51.956;5.902;2023-04-15T13:28:45;19.60;41.50
38464;DHT22;24243;51.956;5.902;2023-04-15T13:31:10;19.50;41.50
38464;DHT22;24243;51.956;5.902;2023-04-15T13:33:36;19.50;41.50
38464;DHT22;24243;51.956;5.902;2023-04-15T13:36:02;19.50;41.50
38464;DHT22;24243;51.956;5.902;2023-04-15T13:38:28;19.50;41.50
38464;DHT22;24243;51.956;5.902;2023-04-15T13:40:53;19.50;41.50
38464;DHT22;24243;51.956;5.902;2023-04-15T13:43:19;19.50;41.50
38464;DHT22;24243;51.956;5.902;2023-04-15T13:45:46;19.50;41.50
38464;DHT22;24243;51.956;5.902;2023-04-15T13:48:12;19.50;41.50
38464;DHT22;24243;51.956;5.902;2023-04-15T13:50:37;19.50;41.50
38464;DHT22;24243;51.956;5.902;2023-04-15T13:53:03;19.50;41.50
38464;DHT22;24243;51.956;5.902;2023-04-15T13:55:29;19.40;41.50
38464;DHT22;24243;51.956;5.902;2023-04-15T13:57:55;19.40;41.50
38464;DHT22;24243;51.956;5.902;2023-04-15T14:00:21;19.40;41.50
38464;DHT22;24243;51.956;5.902;2023-04-15T14:02:47;19.40;41.60
38464;DHT22;24243;51.956;5.902;2023-04-15T14:05:13;19.50;41.70
38464;DHT22;24243;51.956;5.902;2023-04-15T14:07:39;19.50;41.80
38464;DHT22;24243;51.956;5.902;2023-04-15T14:10:05;19.50;41.80
38464;DHT22;24243;51.956;5.902;2023-04-15T14:12:31;19.50;41.80
38464;DHT22;24243;51.956;5.902;2023-04-15T14:14:57;19.50;41.90
38464;DHT22;24243;51.956;5.902;2023-04-15T14:17:24;19.60;42.00
38464;DHT22;24243;51.956;5.902;2023-04-15T14:19:50;19.60;42.00
38464;DHT22;24243;51.956;5.902;2023-04-15T14:22:16;19.60;42.00
38464;DHT22;24243;51.956;5.902;2023-04-15T14:24:43;19.60;42.00
38464;DHT22;24243;51.956;5.902;2023-04-15T14:27:09;19.60;42.00
38464;DHT22;24243;51.956;5.902;2023-04-15T14:29:37;19.60;42.00
38464;DHT22;24243;51.956;5.902;2023-04-15T14:32:03;19.60;41.90
38464;DHT22;24243;51.956;5.902;2023-04-15T14:34:28;19.60;41.90
38464;DHT22;24243;51.956;5.902;2023-04-15T14:36:55;19.60;42.00
38464;DHT22;24243;51.956;5.902;2023-04-15T14:39:21;19.60;42.00
38464;DHT22;24243;51.956;5.902;2023-04-15T14:41:46;19.60;42.00
38464;DHT22;24243;51.956;5.902;2023-04-15T14:44:12;19.60;42.10
38464;DHT22;24243;51.956;5.902;2023-04-15T14:46:38;19.60;42.10
38464;DHT22;24243;51.956;5.902;2023-04-15T14:49:05;19.60;42.20
38464;DHT22;24243;51.956;5.902;2023-04-15T14:51:31;19.60;42.20
38464;DHT22;24243;51.956;5.902;2023-04-15T14:53:57;19.60;42.30
38464;DHT22;24243;51.956;5.902;2023-04-15T14:56:23;19.60;42.30
38464;DHT22;24243;51.956;5.902;2023-04-15T14:58:48;19.60;42.40
38464;DHT22;24243;51.956;5.902;2023-04-15T15:01:17;19.60;42.50
38464;DHT22;24243;51.956;5.902;2023-04-15T15:03:43;19.60;42.50
38464;DHT22;24243;51.956;5.902;2023-04-15T15:06:09;19.60;42.50
38464;DHT22;24243;51.956;5.902;2023-04-15T15:08:35;19.60;42.60
38464;DHT22;24243;51.956;5.902;2023-04-15T15:11:01;19.60;42.70
38464;DHT22;24243;51.956;5.902;2023-04-15T15:13:27;19.60;42.70
38464;DHT22;24243;51.956;5.902;2023-04-15T15:15:53;19.60;42.70
38464;DHT22;24243;51.956;5.902;2023-04-15T15:18:19;19.60;42.70
38464;DHT22;24243;51.956;5.902;2023-04-15T15:20:45;19.60;42.70
38464;DHT22;24243;51.956;5.902;2023-04-15T15:23:10;19.60;42.60
38464;DHT22;24243;51.956;5.902;2023-04-15T15:25:36;19.60;42.50
38464;DHT22;24243;51.956;5.902;2023-04-15T15:28:02;19.50;42.50
38464;DHT22;24243;51.956;5.902;2023-04-15T15:30:28;19.50;42.40
38464;DHT22;24243;51.956;5.902;2023-04-15T15:32:53;19.50;42.40
38464;DHT22;24243;51.956;5.902;2023-04-15T15:35:19;19.50;42.50
38464;DHT22;24243;51.956;5.902;2023-04-15T15:37:47;19.50;42.50
38464;DHT22;24243;51.956;5.902;2023-04-15T15:40:13;19.50;42.60
38464;DHT22;24243;51.956;5.902;2023-04-15T15:42:38;19.50;42.60
38464;DHT22;24243;51.956;5.902;2023-04-15T15:45:04;19.40;42.60
38464;DHT22;24243;51.956;5.902;2023-04-15T15:47:30;19.50;42.70
38464;DHT22;24243;51.956;5.902;2023-04-15T15:49:56;19.50;42.70
38464;DHT22;24243;51.956;5.902;2023-04-15T15:52:22;19.50;43.40
38464;DHT22;24243;51.956;5.902;2023-04-15T15:54:48;19.50;42.80